Time;durP1;ratioP1;P1;durP2;ratioP2;P2;SDS_P1;SDS_P2;PMS_P1;PMS_P2;Temp;Humidity;BMP_temperature;BMP_pressure;BME280_temperature;BME280_humidity;BME280_pressure;Samples;Min_cycle;Max_cycle;Signal;HPM_P1;HPM_P2
2023/08/19 00:01:46;;;;;;;8.77;5.07;;;21.10;99.90;;;;;;5064329;28;20470;-69
2023/08/19 00:04:11;;;;;;;7.07;5.82;;;21.10;99.90;;;;;;5051314;28;20045;-69
2023/08/19 00:06:39;;;;;;;7.15;5.80;;;21.00;99.90;;;;;;5049052;28;20044;-70
2023/08/19 00:09:08;;;;;;;6.47;5.00;;;21.10;99.90;;;;;;5049698;28;20478;-69
2023/08/19 00:11:35;;;;;;;9.77;5.83;;;21.00;99.90;;;;;;5054469;28;20118;-70
2023/08/19 00:14:03;;;;;;;11.77;5.93;;;21.00;99.90;;;;;;5050577;28;20083;-69
2023/08/19 00:16:30;;;;;;;6.75;5.30;;;21.00;99.90;;;;;;5083441;28;20055;-69
2023/08/19 00:18:56;;;;;;;8.27;5.90;;;21.00;99.90;;;;;;5037956;28;20067;-69
2023/08/19 00:21:21;;;;;;;10.80;5.95;;;21.00;99.90;;;;;;5031316;28;20418;-69
2023/08/19 00:23:48;;;;;;;9.55;5.97;;;21.00;99.90;;;;;;5067227;28;20410;-70
2023/08/19 00:26:14;;;;;;;9.05;5.97;;;20.90;99.90;;;;;;5066943;28;20044;-70
2023/08/19 00:28:40;;;;;;;6.03;5.45;;;20.90;99.90;;;;;;5083032;28;20039;-70
2023/08/19 00:31:07;;;;;;;6.75;6.15;;;20.90;99.90;;;;;;5049453;28;20415;-70
2023/08/19 00:33:34;;;;;;;7.85;6.05;;;20.80;99.90;;;;;;5081736;28;20048;-69
2023/08/19 00:36:00;;;;;;;10.07;6.38;;;20.80;99.90;;;;;;5037235;28;20163;-69
2023/08/19 00:38:26;;;;;;;7.03;5.82;;;20.90;99.90;;;;;;5065113;28;20075;-69
2023/08/19 00:40:52;;;;;;;6.60;5.97;;;20.80;99.90;;;;;;5059651;28;20091;-70
2023/08/19 00:43:17;;;;;;;8.98;6.32;;;20.80;99.90;;;;;;5051753;28;20087;-69
2023/08/19 00:45:47;;;;;;;11.55;6.15;;;20.80;99.90;;;;;;5027048;28;20041;-70
2023/08/19 00:48:14;;;;;;;;;;;20.80;99.90;;;;;;5027244;28;20056;-70
2023/08/19 00:50:40;;;;;;;6.40;5.40;;;20.80;99.90;;;;;;5060164;28;19920;-70
2023/08/19 00:53:07;;;;;;;6.47;5.82;;;20.70;99.90;;;;;;5036439;28;20056;-70
2023/08/19 00:55:34;;;;;;;6.43;5.80;;;20.60;99.90;;;;;;5043623;28;20037;-71
2023/08/19 00:58:03;;;;;;;6.70;5.45;;;20.60;99.90;;;;;;5048867;28;20041;-71
2023/08/19 01:00:32;;;;;;;7.22;5.72;;;20.70;99.90;;;;;;5045576;28;20041;-71
2023/08/19 01:02:59;;;;;;;;;;;20.60;99.90;;;;;;5024670;28;20073;-70
2023/08/19 01:05:35;;;;;;;8.63;5.80;;;20.50;99.90;;;;;;5060326;28;19924;-71
2023/08/19 01:08:04;;;;;;;6.93;5.70;;;20.50;99.90;;;;;;5028332;28;20131;-70
2023/08/19 01:10:42;;;;;;;10.05;6.10;;;20.50;99.90;;;;;;5038671;28;20260;-70
2023/08/19 01:13:17;;;;;;;10.43;5.65;;;20.40;99.90;;;;;;5033657;28;20064;-70
2023/08/19 01:15:52;;;;;;;5.85;5.40;;;20.30;99.90;;;;;;5046783;28;20059;-70
2023/08/19 01:18:18;;;;;;;7.22;6.10;;;20.30;99.90;;;;;;5032441;28;20052;-70
2023/08/19 01:20:45;;;;;;;7.63;6.60;;;20.30;99.90;;;;;;5042339;28;20041;-70
2023/08/19 01:23:23;;;;;;;6.93;6.20;;;20.30;99.90;;;;;;5064801;28;20055;-69
2023/08/19 01:25:49;;;;;;;9.05;6.35;;;20.30;99.90;;;;;;5047107;28;20060;-70
2023/08/19 01:28:19;;;;;;;7.03;6.43;;;20.40;99.90;;;;;;5059127;28;20041;-70
2023/08/19 01:30:45;;;;;;;7.75;5.78;;;20.40;99.90;;;;;;5053530;28;20057;-70
2023/08/19 01:33:11;;;;;;;7.97;6.70;;;20.30;99.90;;;;;;5030363;28;20045;-70
2023/08/19 01:35:42;;;;;;;6.47;5.88;;;20.30;99.90;;;;;;5024340;28;20577;-70
2023/08/19 01:38:20;;;;;;;6.40;5.80;;;20.20;99.90;;;;;;5037368;28;20407;-69
2023/08/19 01:40:46;;;;;;;6.57;5.97;;;20.20;99.90;;;;;;5019577;28;20041;-69
2023/08/19 01:43:12;;;;;;;6.97;6.38;;;20.30;99.90;;;;;;5037804;28;20388;-69
2023/08/19 01:45:39;;;;;;;10.43;6.32;;;20.30;99.90;;;;;;5025868;28;20048;-69
2023/08/19 01:48:04;;;;;;;7.22;6.35;;;20.30;99.90;;;;;;5040923;28;20123;-70
2023/08/19 01:50:30;;;;;;;8.32;6.03;;;20.20;99.90;;;;;;5021516;28;20128;-69
2023/08/19 01:52:56;;;;;;;8.98;6.40;;;20.30;99.90;;;;;;5017841;28;20065;-70
2023/08/19 01:55:22;;;;;;;8.75;6.80;;;20.20;99.90;;;;;;5026969;28;20060;-70
2023/08/19 01:57:48;;;;;;;7.65;6.90;;;20.20;99.90;;;;;;5042503;28;20133;-70
2023/08/19 02:00:14;;;;;;;7.20;6.60;;;20.30;99.90;;;;;;5019791;28;20102;-69
2023/08/19 02:02:39;;;;;;;7.15;6.38;;;20.30;99.90;;;;;;5009656;28;20048;-70
2023/08/19 02:05:05;;;;;;;7.38;6.68;;;20.30;99.90;;;;;;5024385;28;20516;-70
2023/08/19 02:07:31;;;;;;;7.57;6.55;;;20.30;99.90;;;;;;5044595;28;20128;-69
2023/08/19 02:09:57;;;;;;;6.90;6.22;;;20.20;99.90;;;;;;5019098;28;20128;-69
2023/08/19 02:12:23;;;;;;;8.88;7.05;;;20.30;99.90;;;;;;5006005;28;20203;-69
2023/08/19 02:14:48;;;;;;;7.70;7.00;;;20.30;99.90;;;;;;5046102;28;20033;-69
2023/08/19 02:17:15;;;;;;;7.63;6.85;;;20.20;99.90;;;;;;5033826;28;20048;-69
2023/08/19 02:19:40;;;;;;;7.55;6.75;;;20.30;99.90;;;;;;5027615;28;20384;-69
2023/08/19 02:22:06;;;;;;;9.32;6.60;;;20.20;99.90;;;;;;5061090;28;20084;-69
2023/08/19 02:24:32;;;;;;;7.88;6.60;;;20.20;99.90;;;;;;5026919;28;20095;-68
2023/08/19 02:26:57;;;;;;;7.25;6.22;;;20.20;99.90;;;;;;5038820;28;20392;-69
2023/08/19 02:29:23;;;;;;;7.20;6.50;;;20.20;99.90;;;;;;5044009;28;20052;-69
2023/08/19 02:31:49;;;;;;;7.10;6.40;;;20.10;99.90;;;;;;5045893;28;20127;-69
2023/08/19 02:34:15;;;;;;;8.15;7.18;;;20.20;99.90;;;;;;5045178;28;20476;-69
2023/08/19 02:36:41;;;;;;;8.95;7.18;;;20.20;99.90;;;;;;5029569;28;20048;-69
2023/08/19 02:39:06;;;;;;;7.68;6.93;;;20.20;99.90;;;;;;5045908;28;20130;-69
2023/08/19 02:41:32;;;;;;;8.25;7.28;;;20.10;99.90;;;;;;5044664;28;20045;-70
2023/08/19 02:43:58;;;;;;;8.60;7.18;;;20.10;99.90;;;;;;5046258;28;20411;-70
2023/08/19 02:46:23;;;;;;;12.60;6.70;;;20.10;99.90;;;;;;5026929;28;20045;-70
2023/08/19 02:48:49;;;;;;;11.68;7.07;;;20.00;99.90;;;;;;5046052;28;20037;-69
2023/08/19 02:51:15;;;;;;;9.48;6.55;;;20.00;99.90;;;;;;5043259;28;20112;-69
2023/08/19 02:53:41;;;;;;;10.75;7.10;;;19.90;99.90;;;;;;5045273;28;20576;-69
2023/08/19 02:56:06;;;;;;;9.82;7.10;;;19.90;99.90;;;;;;5035799;28;20140;-68
2023/08/19 02:58:32;;;;;;;6.57;6.07;;;19.90;99.90;;;;;;5028293;28;20124;-69
2023/08/19 03:00:58;;;;;;;8.55;7.68;;;20.00;99.90;;;;;;5049864;28;20506;-69
2023/08/19 03:03:24;;;;;;;8.02;7.22;;;20.00;99.90;;;;;;5033620;28;20032;-70
2023/08/19 03:05:50;;;;;;;10.10;7.68;;;20.00;99.90;;;;;;5050128;28;20538;-69
2023/08/19 03:08:16;;;;;;;8.23;7.30;;;20.10;99.90;;;;;;5047541;28;20045;-69
2023/08/19 03:10:41;;;;;;;9.25;7.32;;;20.00;99.90;;;;;;5035716;28;20156;-70
2023/08/19 03:13:08;;;;;;;8.82;7.35;;;20.00;99.90;;;;;;5048802;28;20049;-70
2023/08/19 03:15:36;;;;;;;8.35;7.65;;;20.10;99.90;;;;;;5055011;28;20048;-69
2023/08/19 03:18:02;;;;;;;9.10;7.25;;;20.00;99.90;;;;;;5049040;28;20044;-69
2023/08/19 03:20:28;;;;;;;9.50;7.57;;;20.00;99.90;;;;;;5047801;28;20041;-69
2023/08/19 03:22:54;;;;;;;8.05;7.15;;;20.00;99.90;;;;;;5049594;28;20128;-70
2023/08/19 03:25:19;;;;;;;9.98;7.32;;;19.90;99.90;;;;;;5047656;28;20436;-70
2023/08/19 03:27:45;;;;;;;9.98;7.43;;;19.90;99.90;;;;;;5031503;28;20053;-70
2023/08/19 03:30:11;;;;;;;7.43;6.78;;;19.90;99.90;;;;;;5048227;28;20060;-70
2023/08/19 03:32:37;;;;;;;8.73;7.50;;;19.80;99.90;;;;;;5048869;28;20072;-69
2023/08/19 03:35:03;;;;;;;10.98;7.93;;;19.70;99.90;;;;;;5068912;28;20069;-69
2023/08/19 03:37:29;;;;;;;9.65;7.20;;;19.70;99.90;;;;;;5033372;28;20045;-69
2023/08/19 03:39:54;;;;;;;8.13;7.18;;;19.70;99.90;;;;;;5068987;28;20040;-69
2023/08/19 03:42:20;;;;;;;8.13;7.32;;;19.70;99.90;;;;;;5049134;28;20044;-69
2023/08/19 03:44:46;;;;;;;10.13;7.70;;;19.80;99.90;;;;;;5034499;28;20045;-69
2023/08/19 03:47:13;;;;;;;13.10;8.18;;;19.90;99.90;;;;;;5049569;28;20049;-70
2023/08/19 03:49:39;;;;;;;7.97;7.28;;;19.90;99.90;;;;;;5050656;28;20056;-70
2023/08/19 03:52:08;;;;;;;9.13;7.35;;;19.80;99.90;;;;;;5068021;28;20044;-69
2023/08/19 03:54:34;;;;;;;;;;;19.80;99.90;;;;;;5051084;28;20425;-69
2023/08/19 03:57:00;;;;;;;8.13;7.15;;;19.80;99.90;;;;;;5051086;28;20011;-69
2023/08/19 03:59:26;;;;;;;8.82;7.93;;;19.70;99.90;;;;;;5067048;28;20711;-69
2023/08/19 04:01:52;;;;;;;12.18;8.88;;;19.70;99.90;;;;;;5068561;28;20127;-70
2023/08/19 04:04:18;;;;;;;13.40;8.77;;;19.80;99.90;;;;;;5032608;28;20524;-69
2023/08/19 04:06:44;;;;;;;9.90;7.65;;;19.70;99.90;;;;;;5051209;28;20118;-69
2023/08/19 04:09:09;;;;;;;10.40;8.40;;;19.80;99.90;;;;;;5063728;28;20651;-69
2023/08/19 04:11:37;;;;;;;8.93;7.97;;;19.80;99.90;;;;;;5038451;28;20067;-69
2023/08/19 04:14:03;;;;;;;9.98;8.68;;;19.80;99.90;;;;;;5050132;28;20094;-69
2023/08/19 04:16:29;;;;;;;9.27;8.38;;;19.70;99.90;;;;;;5049486;28;20123;-69
2023/08/19 04:18:54;;;;;;;10.18;7.43;;;19.80;99.90;;;;;;5050358;28;20124;-69
2023/08/19 04:21:21;;;;;;;9.10;8.20;;;19.70;99.90;;;;;;5049180;28;20044;-69
2023/08/19 04:23:47;;;;;;;9.10;8.13;;;19.70;99.90;;;;;;5052150;28;20048;-69
2023/08/19 04:26:14;;;;;;;8.93;8.00;;;19.80;99.90;;;;;;5069646;28;20040;-69
2023/08/19 04:28:39;;;;;;;9.70;8.73;;;19.70;99.90;;;;;;5067940;28;20482;-68
2023/08/19 04:31:10;;;;;;;9.75;8.60;;;19.80;99.90;;;;;;5067518;28;20040;-69
2023/08/19 04:33:36;;;;;;;15.07;8.35;;;19.80;99.90;;;;;;5049848;28;20044;-69
2023/08/19 04:36:02;;;;;;;11.52;7.93;;;19.80;99.90;;;;;;5067952;28;20132;-69
2023/08/19 04:38:28;;;;;;;12.30;8.35;;;19.80;99.90;;;;;;5066413;28;20052;-69
2023/08/19 04:40:54;;;;;;;9.25;8.32;;;19.80;99.90;;;;;;5066631;28;20045;-69
2023/08/19 04:43:20;;;;;;;10.80;8.65;;;19.90;99.90;;;;;;5066562;28;20067;-68
2023/08/19 04:45:46;;;;;;;13.30;9.10;;;19.90;99.90;;;;;;5077740;28;20474;-69
2023/08/19 04:48:12;;;;;;;12.32;7.95;;;19.90;99.90;;;;;;5066613;28;20051;-69
2023/08/19 04:50:38;;;;;;;9.13;8.05;;;19.90;99.90;;;;;;5049143;28;20036;-69
2023/08/19 04:53:04;;;;;;;15.20;8.02;;;19.90;99.90;;;;;;5049963;28;20052;-69
2023/08/19 04:55:30;;;;;;;11.32;8.35;;;20.00;99.90;;;;;;5072794;28;20513;-68
2023/08/19 04:57:55;;;;;;;9.07;7.97;;;20.00;99.90;;;;;;5049748;28;20045;-69
2023/08/19 05:00:21;;;;;;;10.43;8.82;;;19.90;99.90;;;;;;5066011;28;20048;-69
2023/08/19 05:02:50;;;;;;;10.05;8.23;;;20.00;99.90;;;;;;5049678;28;20403;-69
2023/08/19 05:05:16;;;;;;;11.30;8.52;;;20.10;99.90;;;;;;5048404;28;20050;-69
2023/08/19 05:07:42;;;;;;;11.50;8.82;;;20.00;99.90;;;;;;5049152;28;20502;-69
2023/08/19 05:10:08;;;;;;;10.02;7.85;;;20.00;99.90;;;;;;5055861;28;20091;-69
2023/08/19 05:12:34;;;;;;;9.48;8.35;;;20.20;99.90;;;;;;5028622;28;20039;-69
2023/08/19 05:15:00;;;;;;;12.70;8.23;;;20.10;99.90;;;;;;5054235;28;20040;-69
2023/08/19 05:17:26;;;;;;;10.70;8.20;;;20.20;99.90;;;;;;5066022;28;20048;-69
2023/08/19 05:19:54;;;;;;;10.45;8.25;;;20.20;99.90;;;;;;5052947;28;20044;-69
2023/08/19 05:22:20;;;;;;;11.27;8.35;;;20.20;99.90;;;;;;5065155;28;20158;-69
2023/08/19 05:24:46;;;;;;;9.30;8.40;;;20.20;99.90;;;;;;5061385;28;20430;-69
2023/08/19 05:27:12;;;;;;;11.65;8.40;;;20.20;99.90;;;;;;5066647;28;20553;-69
2023/08/19 05:29:37;;;;;;;10.32;8.73;;;20.30;99.90;;;;;;5047856;28;20152;-69
2023/08/19 05:32:07;;;;;;;9.60;7.75;;;20.20;99.90;;;;;;5055076;28;20065;-70
2023/08/19 05:34:33;;;;;;;8.80;7.60;;;20.30;99.90;;;;;;5043263;28;20552;-70
2023/08/19 05:36:59;;;;;;;8.80;7.90;;;20.30;99.90;;;;;;5077800;28;20103;-69
2023/08/19 05:39:25;;;;;;;10.48;8.00;;;20.40;99.90;;;;;;5065550;28;20048;-69
2023/08/19 05:41:51;;;;;;;7.53;6.55;;;20.40;99.90;;;;;;5065211;28;20089;-69
2023/08/19 05:44:17;;;;;;;10.05;8.45;;;20.50;99.90;;;;;;5065629;28;20040;-69
2023/08/19 05:46:42;;;;;;;13.43;8.50;;;20.50;99.90;;;;;;5065988;28;20476;-69
2023/08/19 05:49:08;;;;;;;9.02;8.10;;;20.60;99.90;;;;;;5048894;28;20128;-69
2023/08/19 05:51:34;;;;;;;9.40;7.60;;;20.60;99.90;;;;;;5065353;28;20497;-69
2023/08/19 05:54:01;;;;;;;8.20;7.38;;;20.70;99.90;;;;;;5048700;28;20508;-71
2023/08/19 05:56:26;;;;;;;11.32;7.82;;;20.80;99.90;;;;;;5060026;28;20119;-70
2023/08/19 05:58:53;;;;;;;10.38;7.93;;;20.90;99.90;;;;;;5066477;28;20143;-69
2023/08/19 06:01:18;;;;;;;8.23;7.43;;;21.00;99.90;;;;;;5065045;28;20078;-70
2023/08/19 06:03:44;;;;;;;7.40;6.70;;;21.00;99.90;;;;;;5066241;28;20036;-70
2023/08/19 06:06:10;;;;;;;8.90;7.43;;;21.10;99.90;;;;;;5048547;28;20682;-69
2023/08/19 06:08:36;;;;;;;8.27;7.40;;;21.20;99.90;;;;;;5065660;28;20036;-71
2023/08/19 06:11:05;;;;;;;9.32;7.53;;;21.20;99.90;;;;;;5034305;28;20410;-71
2023/08/19 06:13:31;;;;;;;8.48;7.57;;;21.30;99.90;;;;;;5065333;28;20070;-70
2023/08/19 06:15:57;;;;;;;7.35;6.65;;;21.40;99.90;;;;;;5066393;28;20168;-69
2023/08/19 06:18:24;;;;;;;8.55;7.07;;;21.40;99.90;;;;;;5046405;28;20055;-70
2023/08/19 06:20:50;;;;;;;8.73;7.30;;;21.50;99.90;;;;;;5047798;28;20048;-69
2023/08/19 06:23:20;;;;;;;10.05;8.00;;;21.60;99.90;;;;;;5065529;28;20539;-69
2023/08/19 06:25:48;;;;;;;8.82;6.93;;;21.70;99.90;;;;;;5048181;28;20083;-69
2023/08/19 06:28:14;;;;;;;7.87;7.13;;;21.80;99.90;;;;;;5073072;28;20502;-69
2023/08/19 06:30:40;;;;;;;9.68;7.50;;;21.90;99.90;;;;;;5029651;28;20048;-69
2023/08/19 06:33:07;;;;;;;11.10;7.28;;;21.90;99.90;;;;;;5030518;28;20048;-69
2023/08/19 06:35:33;;;;;;;9.88;6.63;;;22.00;99.90;;;;;;5064865;28;20052;-71
2023/08/19 06:38:06;;;;;;;9.70;7.30;;;22.10;99.90;;;;;;5048150;28;20364;-70
2023/08/19 06:40:36;;;;;;;7.60;6.82;;;22.30;99.90;;;;;;5047246;28;20159;-69
2023/08/19 06:43:06;;;;;;;15.57;7.00;;;22.30;99.90;;;;;;5065495;28;20056;-71
2023/08/19 06:45:33;;;;;;;7.88;7.07;;;22.40;99.90;;;;;;5047593;28;20123;-69
2023/08/19 06:48:02;;;;;;;11.20;7.32;;;22.40;99.90;;;;;;5066525;28;20044;-70
2023/08/19 06:50:28;;;;;;;7.95;7.15;;;22.40;99.90;;;;;;5066036;28;20053;-68
2023/08/19 06:52:54;;;;;;;12.75;6.45;;;22.40;99.90;;;;;;5029167;28;20053;-68
2023/08/19 06:55:20;;;;;;;8.55;6.63;;;22.40;99.90;;;;;;5044015;28;20070;-68
2023/08/19 06:58:04;;;;;;;11.88;6.95;;;22.40;99.90;;;;;;5030928;28;20075;-69
2023/08/19 07:00:33;;;;;;;6.60;6.00;;;22.40;99.90;;;;;;5059133;28;20479;-69
2023/08/19 07:03:00;;;;;;;11.37;7.40;;;22.40;99.90;;;;;;5057806;28;20045;-68
2023/08/19 07:05:30;;;;;;;8.15;7.00;;;22.40;99.90;;;;;;5054959;28;20086;-68
2023/08/19 07:07:57;;;;;;;7.85;6.80;;;22.40;99.90;;;;;;5022211;28;20052;-68
2023/08/19 07:10:24;;;;;;;10.98;7.68;;;22.50;99.90;;;;;;5035856;28;20494;-69
2023/08/19 07:12:50;;;;;;;10.82;7.90;;;22.40;99.90;;;;;;5031019;28;20036;-68
2023/08/19 07:15:16;;;;;;;10.57;7.88;;;22.40;99.90;;;;;;5040866;28;20509;-68
2023/08/19 07:17:48;;;;;;;8.40;7.60;;;22.40;99.90;;;;;;5040828;28;20037;-68
2023/08/19 07:20:22;;;;;;;9.80;7.00;;;22.50;99.90;;;;;;5029996;28;20059;-69
2023/08/19 07:22:51;;;;;;;11.25;7.20;;;22.50;99.90;;;;;;5073301;28;20083;-69
2023/08/19 07:25:17;;;;;;;7.10;6.43;;;22.40;99.90;;;;;;5048231;28;20056;-70
2023/08/19 07:27:44;;;;;;;8.27;6.28;;;22.40;99.90;;;;;;5063094;28;20062;-68
2023/08/19 07:30:11;;;;;;;7.47;6.25;;;22.40;99.90;;;;;;5023158;28;20053;-68
2023/08/19 07:32:37;;;;;;;7.07;6.45;;;22.40;99.90;;;;;;5025841;28;20061;-70
2023/08/19 07:35:04;;;;;;;7.07;6.45;;;22.40;99.90;;;;;;5046560;28;20052;-68
2023/08/19 07:37:30;;;;;;;6.47;5.82;;;22.40;99.90;;;;;;5035524;28;20076;-68
2023/08/19 07:39:59;;;;;;;6.65;6.07;;;22.40;99.90;;;;;;5062092;28;20049;-68
2023/08/19 07:42:27;;;;;;;8.93;5.72;;;22.40;99.90;;;;;;5039476;28;20529;-68
2023/08/19 07:44:53;;;;;;;8.83;6.00;;;22.50;99.90;;;;;;5040959;28;20068;-68
2023/08/19 07:47:19;;;;;;;6.18;5.28;;;22.40;99.90;;;;;;5046548;28;20795;-68
2023/08/19 07:49:44;;;;;;;6.20;5.70;;;22.50;99.90;;;;;;5056991;28;20033;-68
2023/08/19 07:52:10;;;;;;;7.63;5.75;;;22.50;99.90;;;;;;5061584;28;20036;-68
2023/08/19 07:54:36;;;;;;;8.77;6.35;;;22.50;99.90;;;;;;5061633;28;20049;-68
2023/08/19 07:57:02;;;;;;;6.28;5.78;;;22.60;99.90;;;;;;5041482;28;20110;-68
2023/08/19 07:59:28;;;;;;;6.80;6.00;;;22.60;99.90;;;;;;5057353;28;20049;-68
2023/08/19 08:01:54;;;;;;;7.25;6.55;;;22.60;99.90;;;;;;5002401;28;20057;-68
2023/08/19 08:04:21;;;;;;;7.53;6.43;;;22.70;99.90;;;;;;5068862;28;20049;-68
2023/08/19 08:06:50;;;;;;;7.63;6.85;;;22.80;99.90;;;;;;5042820;28;20036;-69
2023/08/19 08:09:16;;;;;;;10.88;6.15;;;22.90;99.90;;;;;;5062213;28;20040;-69
2023/08/19 08:11:45;;;;;;;7.28;6.45;;;23.00;99.90;;;;;;5067375;28;20070;-68
2023/08/19 08:14:11;;;;;;;8.02;7.20;;;23.00;99.90;;;;;;5067786;28;20055;-68
2023/08/19 08:16:37;;;;;;;8.85;7.13;;;23.20;99.90;;;;;;5055563;28;20049;-68
2023/08/19 08:19:03;;;;;;;8.90;6.18;;;23.20;99.90;;;;;;5047709;28;20040;-70
2023/08/19 08:21:29;;;;;;;8.18;6.72;;;23.30;99.90;;;;;;5050541;28;20344;-68
2023/08/19 08:23:54;;;;;;;6.85;6.15;;;23.40;99.90;;;;;;5026162;28;20417;-68
2023/08/19 08:26:22;;;;;;;10.60;5.65;;;23.40;99.90;;;;;;5064618;28;20037;-69
2023/08/19 08:28:49;;;;;;;6.00;5.50;;;23.50;99.90;;;;;;5031526;28;20052;-68
2023/08/19 08:31:16;;;;;;;5.40;4.90;;;23.50;99.90;;;;;;5052845;28;20052;-69
2023/08/19 08:33:41;;;;;;;10.88;5.75;;;23.60;99.90;;;;;;5050848;28;20057;-69
2023/08/19 08:36:08;;;;;;;10.73;7.07;;;23.70;99.90;;;;;;5055220;28;20549;-69
2023/08/19 08:38:34;;;;;;;6.30;5.03;;;23.70;99.90;;;;;;5049809;28;20056;-69
2023/08/19 08:41:05;;;;;;;6.53;5.00;;;23.80;99.90;;;;;;5036422;28;20052;-69
2023/08/19 08:43:33;;;;;;;7.88;5.47;;;23.90;99.90;;;;;;5037907;28;20059;-69
2023/08/19 08:46:00;;;;;;;6.10;4.82;;;24.00;99.90;;;;;;5056642;28;20037;-71
2023/08/19 08:48:31;;;;;;;7.13;5.10;;;24.10;99.90;;;;;;5034453;28;20098;-69
2023/08/19 08:50:58;;;;;;;7.63;4.70;;;24.10;99.90;;;;;;5040316;28;20063;-69
2023/08/19 08:53:29;;;;;;;7.35;4.85;;;24.20;99.90;;;;;;5032362;28;20135;-69
2023/08/19 08:55:56;;;;;;;6.78;5.03;;;24.20;99.90;;;;;;5052036;28;20052;-69
2023/08/19 08:58:22;;;;;;;5.68;5.18;;;24.30;99.90;;;;;;5049049;28;20144;-69
2023/08/19 09:00:51;;;;;;;4.93;4.40;;;24.40;99.90;;;;;;5074550;28;20131;-69
2023/08/19 09:03:19;;;;;;;;;;;24.40;99.90;;;;;;5049239;28;20045;-69
2023/08/19 09:05:51;;;;;;;6.97;4.47;;;24.50;99.90;;;;;;5052705;28;19921;-69
2023/08/19 09:08:22;;;;;;;10.70;4.95;;;24.50;99.90;;;;;;5061365;28;20041;-69
2023/08/19 09:10:49;;;;;;;6.30;4.45;;;24.50;99.90;;;;;;5044749;28;20120;-68
2023/08/19 09:13:21;;;;;;;10.15;4.97;;;24.60;99.90;;;;;;5056758;28;20037;-68
2023/08/19 09:15:47;;;;;;;5.85;4.40;;;24.60;99.90;;;;;;5046360;28;20494;-68
2023/08/19 09:18:13;;;;;;;8.80;4.40;;;24.70;99.90;;;;;;5067099;28;20500;-69
2023/08/19 09:20:40;;;;;;;6.97;4.85;;;24.80;99.90;;;;;;5041536;28;20246;-68
2023/08/19 09:23:07;;;;;;;5.00;4.60;;;24.90;99.90;;;;;;5044024;28;20037;-71
2023/08/19 09:25:33;;;;;;;5.90;4.60;;;25.10;99.90;;;;;;5043833;28;20367;-70
2023/08/19 09:27:59;;;;;;;5.88;4.75;;;25.30;99.90;;;;;;5045726;28;20080;-69
2023/08/19 09:30:35;;;;;;;6.32;4.68;;;25.50;99.90;;;;;;5063178;28;20512;-69
2023/08/19 09:33:01;;;;;;;5.32;4.13;;;25.70;99.90;;;;;;5059837;28;20060;-70
2023/08/19 09:35:36;;;;;;;5.10;4.43;;;25.90;99.90;;;;;;5044981;28;20048;-69
2023/08/19 09:38:02;;;;;;;5.25;4.05;;;26.10;99.90;;;;;;5061149;28;20048;-69
2023/08/19 09:40:34;;;;;;;5.05;4.43;;;26.20;99.90;;;;;;5060741;28;20402;-70
2023/08/19 09:42:59;;;;;;;4.50;4.05;;;26.30;99.90;;;;;;5044089;28;20048;-69
2023/08/19 09:45:27;;;;;;;4.57;4.10;;;26.50;99.90;;;;;;5063463;28;20059;-69
2023/08/19 09:47:53;;;;;;;4.38;3.47;;;26.60;99.90;;;;;;5045228;28;20432;-69
2023/08/19 09:50:23;;;;;;;5.35;3.10;;;26.60;99.90;;;;;;5046947;28;20044;-69
2023/08/19 09:52:59;;;;;;;2.90;2.67;;;26.70;99.90;;;;;;5047819;28;20043;-68
2023/08/19 09:55:27;;;;;;;5.10;3.00;;;26.70;99.90;;;;;;5046730;28;20636;-68
2023/08/19 09:57:53;;;;;;;3.05;2.72;;;26.70;99.90;;;;;;5030926;28;20124;-69
2023/08/19 10:00:20;;;;;;;8.05;2.80;;;26.70;99.90;;;;;;5022928;28;20029;-68
2023/08/19 10:02:46;;;;;;;4.50;3.28;;;26.70;99.90;;;;;;5057874;28;20091;-69
2023/08/19 10:05:12;;;;;;;2.95;2.60;;;26.80;99.90;;;;;;5034057;28;20502;-68
2023/08/19 10:07:43;;;;;;;3.13;2.60;;;26.80;99.90;;;;;;5034950;28;20033;-69
2023/08/19 10:10:13;;;;;;;7.30;2.60;;;26.80;95.80;;;;;;5051199;28;20053;-69
2023/08/19 10:12:40;;;;;;;5.45;2.53;;;26.90;96.80;;;;;;5070821;28;20040;-68
2023/08/19 10:15:12;;;;;;;3.13;2.80;;;26.90;92.30;;;;;;5059630;28;20036;-69
2023/08/19 10:17:46;;;;;;;5.05;3.17;;;26.90;85.90;;;;;;5039814;28;20053;-68
2023/08/19 10:20:17;;;;;;;6.05;2.80;;;27.00;91.80;;;;;;5064953;28;20048;-68
2023/08/19 10:22:47;;;;;;;3.25;2.72;;;27.00;89.20;;;;;;5054551;28;20055;-68
2023/08/19 10:25:17;;;;;;;5.20;2.90;;;27.00;82.90;;;;;;5058916;28;20044;-68
2023/08/19 10:27:43;;;;;;;6.70;2.65;;;27.00;80.70;;;;;;5060124;28;20057;-68
2023/08/19 10:30:31;;;;;;;5.13;2.70;;;27.10;84.40;;;;;;5050702;28;20132;-68
2023/08/19 10:33:03;;;;;;;2.95;2.72;;;27.20;81.30;;;;;;5032345;28;20095;-68
2023/08/19 10:35:53;;;;;;;5.90;3.15;;;27.30;79.50;;;;;;5029215;28;20055;-69
2023/08/19 10:38:19;;;;;;;6.93;2.50;;;27.40;77.30;;;;;;5034960;28;20055;-69
2023/08/19 10:41:00;;;;;;;3.10;2.60;;;27.50;67.80;;;;;;5056035;28;20036;-69
2023/08/19 10:43:26;;;;;;;7.72;2.42;;;27.70;69.00;;;;;;5040749;28;20059;-70
2023/08/19 10:45:59;;;;;;;3.33;2.78;;;27.80;63.20;;;;;;5059831;28;20036;-69
2023/08/19 10:48:32;;;;;;;5.90;2.58;;;27.80;55.50;;;;;;5052352;28;20052;-69
2023/08/19 10:50:57;;;;;;;2.80;2.60;;;27.70;54.70;;;;;;5050179;28;20076;-69
2023/08/19 10:53:24;;;;;;;3.47;3.13;;;27.60;53.60;;;;;;5034573;28;20094;-70
2023/08/19 10:55:54;;;;;;;3.40;3.10;;;27.50;60.00;;;;;;5064115;28;20040;-70
2023/08/19 10:58:21;;;;;;;7.43;3.50;;;27.40;61.30;;;;;;5044670;28;20044;-69
2023/08/19 11:00:48;;;;;;;4.88;3.05;;;27.20;59.80;;;;;;5056282;28;20044;-71
2023/08/19 11:03:15;;;;;;;7.53;3.22;;;27.10;64.90;;;;;;5040808;28;20098;-70
2023/08/19 11:05:51;;;;;;;7.22;3.50;;;27.00;70.10;;;;;;5044644;28;20052;-70
2023/08/19 11:08:17;;;;;;;12.07;3.83;;;26.80;83.50;;;;;;5024755;28;20124;-70
2023/08/19 11:10:47;;;;;;;5.47;3.20;;;26.80;90.80;;;;;;5033850;28;20100;-70
2023/08/19 11:13:16;;;;;;;7.80;3.55;;;26.70;93.70;;;;;;5030238;28;20486;-70
2023/08/19 11:15:42;;;;;;;4.47;3.40;;;26.70;95.10;;;;;;5066139;28;20056;-69
2023/08/19 11:18:08;;;;;;;3.53;3.20;;;26.60;96.40;;;;;;5032589;28;20048;-69
2023/08/19 11:20:36;;;;;;;4.15;3.22;;;26.50;99.90;;;;;;5064521;28;20049;-69
2023/08/19 11:23:02;;;;;;;4.90;3.15;;;26.50;99.90;;;;;;5067066;28;20132;-68
2023/08/19 11:25:38;;;;;;;3.28;3.08;;;26.40;99.90;;;;;;5049514;28;20052;-70
2023/08/19 11:28:05;;;;;;;5.55;4.13;;;26.30;99.90;;;;;;5050164;28;20144;-71
2023/08/19 11:30:31;;;;;;;5.60;3.60;;;26.00;99.90;;;;;;5031432;28;20045;-71
2023/08/19 11:32:57;;;;;;;5.22;3.90;;;25.70;99.90;;;;;;5027825;28;20056;-71
2023/08/19 11:35:26;;;;;;;4.50;4.00;;;25.60;99.90;;;;;;5027903;28;20048;-71
2023/08/19 11:37:52;;;;;;;7.03;3.67;;;25.50;99.90;;;;;;5043395;28;20080;-72
2023/08/19 11:40:18;;;;;;;5.07;3.95;;;25.50;99.90;;;;;;5034748;28;20072;-71
2023/08/19 11:42:43;;;;;;;8.70;4.18;;;25.50;99.90;;;;;;5048627;28;20502;-72
2023/08/19 11:45:12;;;;;;;5.30;4.07;;;25.40;99.90;;;;;;5050630;28;20044;-71
2023/08/19 11:47:38;;;;;;;6.55;3.60;;;25.50;99.90;;;;;;5043759;28;20056;-71
2023/08/19 11:50:05;;;;;;;3.70;3.40;;;25.50;99.90;;;;;;5065514;28;20055;-71
2023/08/19 11:52:32;;;;;;;4.50;4.07;;;25.50;99.90;;;;;;5045534;28;20044;-71
2023/08/19 11:54:59;;;;;;;6.60;3.60;;;25.50;99.90;;;;;;5038482;28;20107;-71
2023/08/19 11:57:25;;;;;;;5.35;3.58;;;25.50;99.90;;;;;;5049744;28;20037;-71
2023/08/19 11:59:56;;;;;;;4.10;3.72;;;25.60;99.90;;;;;;5048522;28;20106;-71
2023/08/19 12:02:23;;;;;;;6.88;3.50;;;25.60;99.90;;;;;;5051605;28;20098;-71
2023/08/19 12:04:53;;;;;;;7.32;4.07;;;25.70;99.90;;;;;;5047021;28;20044;-71
2023/08/19 12:07:26;;;;;;;4.30;3.88;;;25.80;99.90;;;;;;5049438;28;20044;-71
2023/08/19 12:09:56;;;;;;;6.55;3.92;;;25.90;99.90;;;;;;5051141;28;20044;-70
2023/08/19 12:12:22;;;;;;;7.90;3.90;;;26.00;99.90;;;;;;5056094;28;20126;-71
2023/08/19 12:14:48;;;;;;;3.97;3.30;;;26.00;99.90;;;;;;5048224;28;20443;-71
2023/08/19 12:17:14;;;;;;;7.18;4.18;;;26.10;99.90;;;;;;5052691;28;20045;-70
2023/08/19 12:19:39;;;;;;;7.50;3.75;;;26.20;99.90;;;;;;5030686;28;20073;-72
2023/08/19 12:22:05;;;;;;;9.38;4.25;;;26.30;99.90;;;;;;5035299;28;20493;-70
2023/08/19 12:24:31;;;;;;;6.45;4.30;;;26.40;99.90;;;;;;5048596;28;20084;-71
2023/08/19 12:26:59;;;;;;;;;;;26.40;99.90;;;;;;5063480;28;20095;-70
2023/08/19 12:29:27;;;;;;;6.72;4.28;;;26.40;99.90;;;;;;5030831;28;19921;-71
2023/08/19 12:31:52;;;;;;;5.43;4.18;;;26.40;99.90;;;;;;5063244;28;20049;-71
2023/08/19 12:34:18;;;;;;;8.98;4.55;;;26.40;99.90;;;;;;5051300;28;20079;-71
2023/08/19 12:36:44;;;;;;;6.90;5.10;;;26.30;99.90;;;;;;5060408;28;20045;-70
2023/08/19 12:39:10;;;;;;;5.38;4.88;;;26.20;99.90;;;;;;5028384;28;20040;-70
2023/08/19 12:41:36;;;;;;;9.80;5.22;;;26.20;99.90;;;;;;5061548;28;20116;-70
2023/08/19 12:44:01;;;;;;;7.50;4.88;;;26.20;99.90;;;;;;5033327;28;20044;-71
2023/08/19 12:46:32;;;;;;;4.75;4.28;;;26.20;99.90;;;;;;5045917;28;20049;-70